Fish-byte — WDG3793 — position and weather

sailwx.info

Track history (hours):
 
Tides and Currents Weather Stations Pressure Air Temp Water Temp Dewpoint Dewpoint Depression Visibility Wind Speed Wind Dir Waves Ship Positions

Fish-byte

Owner: Levi Mr, Richard H, Springfield, IL. More information available from US FCC via Universal Licensing System.

Last reported at 2018-Apr-21 15:15 UTC. Time now 2018-Aug-19 15:18 UTC.
Position N 25°44' W 080°14'.
Warning: this ship's position is months out of date.

Length 8 m.

Type: Pleasure craft. MMSI: 367529690.

Date/timePositionNaut miles runAvg speedWind from/ knotsBaromVisibWave heightAir tempDewpointWater temp
2018-Apr-21 15:15N 25°44' W 080°14'0 0.2
2018-Apr-21 15:00N 25°44' W 080°14'2 1.1
2018-Apr-21 13:35N 25°42' W 080°15'111.8
2018-Apr-21 13:28N 25°43' W 080°14'0 0.0
2018-Apr-19 23:49N 25°44' W 080°14'0 1.5
2018-Apr-19 23:29N 25°43' W 080°14'5 9.9
2018-Apr-19 23:00N 25°47' W 080°11'2 3.4
2018-Apr-19 22:30N 25°48' W 080°09'0 0.0
2018-Apr-19 22:00N 25°48' W 080°09'0 0.0
2018-Apr-19 21:30N 25°48' W 080°09'1 1.8
2018-Apr-19 21:00N 25°48' W 080°10'510.8
2018-Apr-19 20:29N 25°44' W 080°14'0 0.0
2018-Apr-19 19:53N 25°44' W 080°14'716.3
2018-Apr-19 19:26N 25°39' W 080°08'6 1.2
2018-Apr-19 14:11N 25°42' W 080°13'1 6.2
2018-Apr-19 14:01N 25°43' W 080°14'0 0.6
2018-Apr-19 13:21N 25°44' W 080°14'0 0.0
2018-Apr-17 14:48N 25°44' W 080°14'0 0.0
2018-Apr-17 14:30N 25°44' W 080°14'0 0.0
2018-Apr-16 21:53N 25°44' W 080°14'0 0.0
2018-Apr-15 00:59N 25°44' W 080°14'2 3.7
2018-Apr-15 00:30N 25°43' W 080°12'5 9.8
2018-Apr-15 00:00N 25°48' W 080°09'0 0.1
2018-Apr-14 19:42N 25°48' W 080°09'0 0.2
2018-Apr-14 19:30N 25°48' W 080°09'3 5.6
2018-Apr-14 19:00N 25°46' W 080°11'3 0.1
2018-Apr-13 20:09N 25°44' W 080°14'0 0.0
2018-Apr-13 20:00N 25°44' W 080°14'0 0.0
2018-Apr-13 19:30N 25°44' W 080°14'0 0.0
2018-Apr-13 18:54N 25°44' W 080°14'  
Track history (hours):
 
Tides and Currents Weather Stations Pressure Air Temp Water Temp Dewpoint Dewpoint Depression Visibility Wind Speed Wind Dir Waves Ship Positions

Fish-byte

Owner: Levi Mr, Richard H, Springfield, IL. More information available from US FCC via Universal Licensing System.

Last reported at 2018-Apr-21 15:15 UTC. Time now 2018-Aug-19 15:18 UTC.
Position N 25°44' W 080°14'.
Warning: this ship's position is months out of date.

Length 8 m.

Type: Pleasure craft. MMSI: 367529690.

Date/timePositionNaut miles runAvg speedWind from/ knotsBaromVisibWave heightAir tempDewpointWater temp
2018-Apr-21 15:15N 25°44' W 080°14'0 0.2
2018-Apr-21 15:00N 25°44' W 080°14'2 1.1
2018-Apr-21 13:35N 25°42' W 080°15'111.8
2018-Apr-21 13:28N 25°43' W 080°14'0 0.0
2018-Apr-19 23:49N 25°44' W 080°14'0 1.5
2018-Apr-19 23:29N 25°43' W 080°14'5 9.9
2018-Apr-19 23:00N 25°47' W 080°11'2 3.4
2018-Apr-19 22:30N 25°48' W 080°09'0 0.0
2018-Apr-19 22:00N 25°48' W 080°09'0 0.0
2018-Apr-19 21:30N 25°48' W 080°09'1 1.8
2018-Apr-19 21:00N 25°48' W 080°10'510.8
2018-Apr-19 20:29N 25°44' W 080°14'0 0.0
2018-Apr-19 19:53N 25°44' W 080°14'716.3
2018-Apr-19 19:26N 25°39' W 080°08'6 1.2
2018-Apr-19 14:11N 25°42' W 080°13'1 6.2
2018-Apr-19 14:01N 25°43' W 080°14'0 0.6
2018-Apr-19 13:21N 25°44' W 080°14'0 0.0
2018-Apr-17 14:48N 25°44' W 080°14'0 0.0
2018-Apr-17 14:30N 25°44' W 080°14'0 0.0
2018-Apr-16 21:53N 25°44' W 080°14'0 0.0
2018-Apr-15 00:59N 25°44' W 080°14'2 3.7
2018-Apr-15 00:30N 25°43' W 080°12'5 9.8
2018-Apr-15 00:00N 25°48' W 080°09'0 0.1
2018-Apr-14 19:42N 25°48' W 080°09'0 0.2
2018-Apr-14 19:30N 25°48' W 080°09'3 5.6
2018-Apr-14 19:00N 25°46' W 080°11'3 0.1
2018-Apr-13 20:09N 25°44' W 080°14'0 0.0
2018-Apr-13 20:00N 25°44' W 080°14'0 0.0
2018-Apr-13 19:30N 25°44' W 080°14'0 0.0
2018-Apr-13 18:54N 25°44' W 080°14'  

Dump ship's entire track history